Terminal Aerodrome Forecast
Issued by NWS

Home | Current Version | Previous Version | Graphics & Text | Print | Product List | Glossary On
Versions: 1 2 3 4 5 6 7 8 9 10 11 12 13 14 15
000
FTUS43 KTOP 291600 AAA
TAFFOE
TAF AMD
KFOE 291606Z 2916/3012 25014KT P6SM BKN150
     FM291800 33019G26KT P6SM SCT150
     FM300100 30004KT P6SM SKC=

USA.gov is the U.S. government's official web portal to all federal, state and local government web resources and services.